Time;durP1;ratioP1;P1;durP2;ratioP2;P2;SDS_P1;SDS_P2;PMS_P1;PMS_P2;Temp;Humidity;BMP_temperature;BMP_pressure;BME280_temperature;BME280_humidity;BME280_pressure;Samples;Min_cycle;Max_cycle;Signal;HPM_P1;HPM_P2
2023/08/15 00:01:24;;;;;;;28.23;6.80;;;21.40;99.90;;;;;;5009170;28;20509;-69
2023/08/15 00:03:51;;;;;;;6.43;4.97;;;21.40;99.90;;;;;;5007958;28;21339;-69
2023/08/15 00:06:20;;;;;;;4.77;4.37;;;21.40;99.90;;;;;;5006308;28;20477;-70
2023/08/15 00:08:48;;;;;;;16.50;5.30;;;21.40;99.90;;;;;;5007640;28;20477;-69
2023/08/15 00:11:15;;;;;;;8.50;5.53;;;21.50;99.90;;;;;;5009678;28;20482;-69
2023/08/15 00:13:43;;;;;;;8.87;6.40;;;21.50;99.90;;;;;;4989629;28;20792;-69
2023/08/15 00:16:10;;;;;;;6.07;5.57;;;21.60;99.90;;;;;;5007802;28;20670;-69
2023/08/15 00:18:37;;;;;;;10.67;6.97;;;21.60;99.90;;;;;;5011847;28;20482;-69
2023/08/15 00:21:04;;;;;;;19.93;6.30;;;21.70;99.90;;;;;;5002209;28;20490;-70
2023/08/15 00:23:31;;;;;;;11.07;6.40;;;21.80;99.90;;;;;;5021723;28;20686;-70
2023/08/15 00:25:58;;;;;;;9.03;6.27;;;21.80;99.90;;;;;;5004298;28;20524;-70
2023/08/15 00:28:25;;;;;;;6.30;5.70;;;21.80;99.90;;;;;;5016053;28;20478;-70
2023/08/15 00:30:53;;;;;;;7.50;6.80;;;;;;;;;;5016534;28;20537;-71
2023/08/15 00:33:20;;;;;;;6.23;5.63;;;21.90;99.90;;;;;;5008562;28;20504;-70
2023/08/15 00:35:47;;;;;;;6.60;5.87;;;21.80;99.90;;;;;;5018275;28;20477;-70
2023/08/15 00:38:14;;;;;;;9.07;6.13;;;21.90;99.90;;;;;;5010354;28;20529;-70
2023/08/15 00:40:41;;;;;;;7.07;5.73;;;21.90;99.90;;;;;;5012346;28;20557;-70
2023/08/15 00:43:09;;;;;;;6.50;5.53;;;21.90;99.90;;;;;;5013844;28;20520;-70
2023/08/15 00:45:40;;;;;;;7.40;6.60;;;21.90;99.90;;;;;;5010764;28;20469;-70
2023/08/15 00:48:09;;;;;;;10.60;6.13;;;21.90;99.90;;;;;;4988010;28;20545;-69
2023/08/15 00:50:36;;;;;;;8.10;6.60;;;21.90;99.90;;;;;;5020623;28;20913;-70
2023/08/15 00:53:05;;;;;;;6.60;5.90;;;21.90;99.90;;;;;;4999752;28;20849;-70
2023/08/15 00:55:33;;;;;;;7.43;5.20;;;21.70;99.90;;;;;;5024878;28;20553;-70
2023/08/15 00:58:00;;;;;;;6.23;5.27;;;21.50;99.90;;;;;;5005539;28;20478;-70
2023/08/15 01:00:27;;;;;;;20.43;6.20;;;21.50;99.90;;;;;;5001442;28;20524;-69
2023/08/15 01:02:54;;;;;;;15.80;7.23;;;21.30;99.90;;;;;;5196785;22;20476;-66
2023/08/15 01:05:24;;;;;;;6.00;4.40;;;21.30;99.90;;;;;;5032370;28;20533;-67
2023/08/15 01:07:51;;;;;;;5.50;4.90;;;21.40;99.90;;;;;;5042834;28;20595;-67
2023/08/15 01:10:18;;;;;;;6.80;4.30;;;21.60;99.90;;;;;;5045436;28;20829;-67
2023/08/15 01:12:52;;;;;;;3.90;2.70;;;21.60;99.90;;;;;;5015607;28;20479;-67
2023/08/15 01:15:23;;;;;;;7.63;2.80;;;21.80;99.90;;;;;;5038706;28;20973;-66
2023/08/15 01:17:58;;;;;;;4.97;3.00;;;21.90;99.90;;;;;;5033184;28;20480;-66
2023/08/15 01:20:29;;;;;;;6.27;2.80;;;21.90;99.90;;;;;;5039589;28;21196;-65
2023/08/15 01:23:00;;;;;;;3.60;2.47;;;21.80;99.90;;;;;;5050482;28;20483;-64
2023/08/15 01:25:29;;;;;;;4.50;2.70;;;21.60;99.90;;;;;;5038267;28;20464;-64
2023/08/15 01:27:56;;;;;;;9.87;3.27;;;21.60;99.90;;;;;;5038508;28;21239;-64
2023/08/15 01:30:24;;;;;;;6.20;3.03;;;21.70;99.90;;;;;;5018944;28;20502;-64
2023/08/15 01:33:00;;;;;;;3.80;2.80;;;21.70;99.90;;;;;;5011044;28;20455;-64
2023/08/15 01:35:32;;;;;;;3.47;2.50;;;21.70;99.90;;;;;;5043345;28;20849;-64
2023/08/15 01:38:02;;;;;;;6.07;2.87;;;21.70;99.90;;;;;;5040890;28;20481;-65
2023/08/15 01:40:35;;;;;;;20.00;3.57;;;21.80;99.90;;;;;;5047891;28;20865;-65
2023/08/15 01:43:03;;;;;;;4.93;2.43;;;21.80;99.90;;;;;;5034635;28;20498;-64
2023/08/15 01:45:31;;;;;;;6.17;2.93;;;21.80;99.90;;;;;;5046785;28;20535;-65
2023/08/15 01:47:58;;;;;;;4.40;2.47;;;21.80;99.90;;;;;;5048160;28;20452;-65
2023/08/15 01:50:25;;;;;;;9.83;4.00;;;21.80;99.90;;;;;;5039256;28;20886;-64
2023/08/15 01:52:52;;;;;;;6.10;3.07;;;21.80;99.90;;;;;;5026441;28;21108;-65
2023/08/15 01:55:19;;;;;;;8.93;3.40;;;21.70;99.90;;;;;;5025972;28;20477;-65
2023/08/15 01:57:47;;;;;;;8.40;2.83;;;21.50;99.90;;;;;;5021972;28;20490;-66
2023/08/15 02:00:15;;;;;;;10.03;3.43;;;21.50;99.90;;;;;;5025903;28;20478;-66
2023/08/15 02:02:42;;;;;;;5.20;2.97;;;21.50;99.90;;;;;;5009879;28;20474;-66
2023/08/15 02:05:09;;;;;;;4.67;2.90;;;21.40;99.90;;;;;;5002845;28;20724;-66
2023/08/15 02:07:35;;;;;;;9.80;2.80;;;21.30;99.90;;;;;;5036345;28;20488;-66
2023/08/15 02:10:04;;;;;;;8.03;3.50;;;21.40;99.90;;;;;;5041178;28;20478;-66
2023/08/15 02:12:31;;;;;;;3.27;2.87;;;21.40;99.90;;;;;;5044192;28;20817;-66
2023/08/15 02:14:59;;;;;;;4.13;2.43;;;21.50;99.90;;;;;;5046766;28;20477;-66
2023/08/15 02:17:26;;;;;;;5.60;3.00;;;21.60;99.90;;;;;;5038326;28;20571;-64
2023/08/15 02:19:53;;;;;;;7.00;3.67;;;;;;;;;;5034412;28;20558;-64
2023/08/15 02:22:20;;;;;;;5.03;3.03;;;21.70;99.90;;;;;;5033161;28;20478;-64
2023/08/15 02:24:47;;;;;;;7.93;3.10;;;21.80;99.90;;;;;;5037870;28;20567;-64
2023/08/15 02:27:14;;;;;;;3.93;2.87;;;21.70;99.90;;;;;;5028905;28;21035;-64
2023/08/15 02:29:41;;;;;;;5.57;3.53;;;21.80;99.90;;;;;;5048110;28;20453;-64
2023/08/15 02:32:09;;;;;;;4.73;3.10;;;21.80;99.90;;;;;;5048478;28;20903;-64
2023/08/15 02:34:36;;;;;;;7.43;3.30;;;21.70;99.90;;;;;;5043606;28;21022;-65
2023/08/15 02:37:05;;;;;;;6.00;3.83;;;21.60;99.90;;;;;;5032063;28;20484;-64
2023/08/15 02:39:32;;;;;;;5.03;3.23;;;21.70;99.90;;;;;;5049150;28;20517;-64
2023/08/15 02:41:59;;;;;;;5.93;3.13;;;21.60;99.90;;;;;;5032259;28;20487;-64
2023/08/15 02:44:26;;;;;;;4.23;3.30;;;21.60;99.90;;;;;;5043497;28;20567;-64
2023/08/15 02:46:53;;;;;;;3.47;3.00;;;21.50;99.90;;;;;;5033380;28;20477;-64
2023/08/15 02:49:21;;;;;;;5.10;3.40;;;21.60;99.90;;;;;;5047115;28;20576;-64
2023/08/15 02:51:48;;;;;;;4.70;3.60;;;21.60;99.90;;;;;;5049155;28;20473;-64
2023/08/15 02:54:15;;;;;;;5.17;3.97;;;21.70;99.90;;;;;;5035353;28;20453;-64
2023/08/15 02:56:42;;;;;;;5.73;3.70;;;21.70;99.90;;;;;;5049066;28;20474;-63
2023/08/15 02:59:09;;;;;;;4.40;3.13;;;21.70;99.90;;;;;;5044561;28;20482;-64
2023/08/15 03:01:36;;;;;;;3.53;3.00;;;21.80;99.90;;;;;;5036371;28;20452;-64
2023/08/15 03:04:03;;;;;;;5.93;3.53;;;21.70;99.90;;;;;;5039743;28;20452;-65
2023/08/15 03:06:31;;;;;;;5.33;4.10;;;21.70;99.90;;;;;;5031810;28;20452;-64
2023/08/15 03:08:59;;;;;;;4.23;3.63;;;21.80;99.90;;;;;;5046457;28;20805;-64
2023/08/15 03:11:26;;;;;;;6.23;3.23;;;21.80;99.90;;;;;;5020608;28;20449;-65
2023/08/15 03:13:54;;;;;;;4.20;3.80;;;21.70;99.90;;;;;;5045779;28;20849;-64
2023/08/15 03:16:21;;;;;;;5.10;3.73;;;21.60;99.90;;;;;;5019117;28;20458;-64
2023/08/15 03:18:48;;;;;;;4.37;3.03;;;21.60;99.90;;;;;;5022045;28;21049;-64
2023/08/15 03:21:15;;;;;;;5.70;4.20;;;21.60;99.90;;;;;;5039792;28;20486;-64
2023/08/15 03:23:44;;;;;;;6.33;3.40;;;21.70;99.90;;;;;;5041342;28;20463;-65
2023/08/15 03:26:11;;;;;;;11.80;4.60;;;21.70;99.90;;;;;;5045216;28;20553;-64
2023/08/15 03:28:38;;;;;;;6.23;3.70;;;21.70;99.90;;;;;;5048500;28;20447;-66
2023/08/15 03:31:06;;;;;;;3.93;3.33;;;21.70;99.90;;;;;;5049572;28;20584;-66
2023/08/15 03:33:33;;;;;;;3.97;3.57;;;21.80;99.90;;;;;;5026192;28;20461;-67
2023/08/15 03:36:00;;;;;;;9.50;4.37;;;21.80;99.90;;;;;;5010861;28;20483;-66
2023/08/15 03:38:27;;;;;;;11.43;4.23;;;21.80;99.90;;;;;;5043436;28;21014;-64
2023/08/15 03:41:03;;;;;;;5.23;3.33;;;21.80;99.90;;;;;;5048406;28;20483;-64
2023/08/15 03:43:30;;;;;;;3.53;3.13;;;21.90;99.90;;;;;;5045054;28;20506;-64
2023/08/15 03:45:57;;;;;;;10.20;3.63;;;21.90;99.90;;;;;;5052875;28;20472;-64
2023/08/15 03:48:24;;;;;;;6.17;4.40;;;21.90;99.90;;;;;;5036299;28;20494;-63
2023/08/15 03:50:53;;;;;;;5.27;3.70;;;21.70;99.90;;;;;;5023050;28;20565;-64
2023/08/15 03:53:20;;;;;;;4.30;3.43;;;21.60;99.90;;;;;;5025884;28;20478;-63
2023/08/15 03:55:49;;;;;;;7.90;3.90;;;21.60;99.90;;;;;;4988434;28;21087;-64
2023/08/15 03:58:17;;;;;;;5.33;3.50;;;21.60;99.90;;;;;;5015927;28;20483;-64
2023/08/15 04:00:44;;;;;;;5.50;3.60;;;21.60;99.90;;;;;;5045788;28;20553;-63
2023/08/15 04:03:11;;;;;;;4.40;3.87;;;21.60;99.90;;;;;;5029440;28;20466;-64
2023/08/15 04:05:38;;;;;;;4.73;3.60;;;;;;;;;;5014361;28;22167;-64
2023/08/15 04:08:06;;;;;;;5.30;4.10;;;21.50;99.90;;;;;;5019979;28;20895;-63
2023/08/15 04:10:39;;;;;;;5.40;3.93;;;21.50;99.90;;;;;;5013668;28;20475;-63
2023/08/15 04:13:06;;;;;;;3.80;3.50;;;21.50;99.90;;;;;;5029297;28;20521;-63
2023/08/15 04:15:35;;;;;;;6.10;3.67;;;21.40;99.90;;;;;;4995320;28;20445;-63
2023/08/15 04:18:02;;;;;;;3.60;3.07;;;21.40;99.90;;;;;;5009880;28;20479;-63
2023/08/15 04:20:29;;;;;;;6.43;4.27;;;21.40;99.90;;;;;;5020757;28;20465;-63
2023/08/15 04:22:55;;;;;;;7.40;3.73;;;21.40;99.90;;;;;;5041470;28;21362;-63
2023/08/15 04:25:22;;;;;;;7.50;3.47;;;21.40;99.90;;;;;;5003197;28;20535;-63
2023/08/15 04:27:49;;;;;;;4.30;3.70;;;21.30;99.90;;;;;;5038681;28;20451;-65
2023/08/15 04:30:18;;;;;;;8.40;3.80;;;21.30;99.90;;;;;;5026160;28;21026;-66
2023/08/15 04:32:46;;;;;;;7.50;3.10;;;21.30;99.90;;;;;;5035288;28;20519;-65
2023/08/15 04:35:14;;;;;;;8.50;3.83;;;21.30;99.90;;;;;;5043671;28;20478;-65
2023/08/15 04:37:41;;;;;;;7.00;4.67;;;21.30;99.90;;;;;;5034033;28;20487;-66
2023/08/15 04:40:12;;;;;;;10.53;4.47;;;21.10;99.90;;;;;;5029903;28;20559;-65
2023/08/15 04:42:39;;;;;;;4.30;3.70;;;21.20;99.90;;;;;;5028096;28;20454;-66
2023/08/15 04:45:07;;;;;;;9.70;4.10;;;21.10;99.90;;;;;;5028054;28;20958;-65
2023/08/15 04:47:34;;;;;;;8.57;3.80;;;21.10;99.90;;;;;;5043708;28;21007;-63
2023/08/15 04:50:03;;;;;;;3.23;2.93;;;21.00;99.90;;;;;;5026020;28;20605;-63
2023/08/15 04:52:30;;;;;;;8.20;3.33;;;21.00;99.90;;;;;;5036447;28;20481;-63
2023/08/15 04:54:57;;;;;;;3.57;3.27;;;21.00;99.90;;;;;;5028675;28;20491;-63
2023/08/15 04:57:24;;;;;;;11.60;3.67;;;21.00;99.90;;;;;;5030242;28;20496;-64
2023/08/15 04:59:53;;;;;;;4.13;3.60;;;20.90;99.90;;;;;;5037569;28;21054;-63
2023/08/15 05:02:20;;;;;;;11.33;3.50;;;20.90;99.90;;;;;;5016827;28;20540;-63
2023/08/15 05:04:47;;;;;;;7.47;3.10;;;20.90;99.90;;;;;;5034593;28;20479;-64
2023/08/15 05:07:15;;;;;;;5.50;3.83;;;20.70;99.90;;;;;;5029355;28;20516;-63
2023/08/15 05:09:44;;;;;;;6.43;3.50;;;20.80;99.90;;;;;;5040478;28;20478;-63
2023/08/15 05:12:11;;;;;;;5.53;3.67;;;20.90;99.90;;;;;;5043802;28;20535;-64
2023/08/15 05:14:38;;;;;;;6.80;3.60;;;20.90;99.90;;;;;;5041901;28;20456;-63
2023/08/15 05:17:05;;;;;;;7.17;4.77;;;20.90;99.90;;;;;;5004260;28;20578;-63
2023/08/15 05:19:32;;;;;;;4.33;3.27;;;20.90;99.90;;;;;;5010940;28;20477;-63
2023/08/15 05:21:59;;;;;;;11.40;3.90;;;20.80;99.90;;;;;;5033776;28;20901;-64
2023/08/15 05:24:28;;;;;;;5.37;4.50;;;20.70;99.90;;;;;;5018542;28;20934;-63
2023/08/15 05:26:54;;;;;;;3.50;3.17;;;20.50;99.90;;;;;;5027435;28;21011;-63
2023/08/15 05:29:21;;;;;;;4.97;4.33;;;20.50;99.90;;;;;;5029333;28;20500;-63
2023/08/15 05:31:48;;;;;;;7.23;3.53;;;20.60;99.90;;;;;;5005986;28;20927;-63
2023/08/15 05:34:15;;;;;;;4.57;3.60;;;20.60;99.90;;;;;;5021532;28;20491;-63
2023/08/15 05:36:42;;;;;;;6.30;3.40;;;20.70;99.90;;;;;;5020195;28;20486;-63
2023/08/15 05:39:09;;;;;;;4.50;3.43;;;20.80;99.90;;;;;;5045460;28;20477;-65
2023/08/15 05:41:37;;;;;;;9.60;4.23;;;20.90;99.90;;;;;;5028486;28;20553;-66
2023/08/15 05:44:05;;;;;;;8.53;4.07;;;21.00;99.90;;;;;;5009362;28;20448;-66
2023/08/15 05:46:32;;;;;;;6.73;4.87;;;21.10;99.90;;;;;;5032663;28;20491;-65
2023/08/15 05:48:58;;;;;;;7.13;4.07;;;21.00;99.90;;;;;;5001447;28;20566;-66
2023/08/15 05:51:25;;;;;;;11.23;4.13;;;20.80;99.90;;;;;;5042386;28;21803;-66
2023/08/15 05:53:53;;;;;;;9.73;3.43;;;20.80;99.90;;;;;;5012738;28;20564;-65
2023/08/15 05:56:20;;;;;;;6.73;4.27;;;20.80;99.90;;;;;;5032844;28;20487;-65
2023/08/15 05:58:48;;;;;;;4.90;4.43;;;20.80;99.90;;;;;;5043857;28;20559;-63
2023/08/15 06:01:15;;;;;;;7.00;4.57;;;21.00;99.90;;;;;;5010950;28;20486;-63
2023/08/15 06:03:42;;;;;;;6.13;3.53;;;21.00;99.90;;;;;;5032393;28;20572;-62
2023/08/15 06:06:09;;;;;;;4.80;4.30;;;21.10;99.90;;;;;;5014941;28;20551;-64
2023/08/15 06:08:36;;;;;;;5.10;4.20;;;21.20;99.90;;;;;;5024844;28;20494;-63
2023/08/15 06:11:03;;;;;;;5.73;5.10;;;21.20;99.90;;;;;;5027091;28;20911;-63
2023/08/15 06:13:30;;;;;;;5.87;5.13;;;21.30;99.90;;;;;;5021335;28;20531;-63
2023/08/15 06:15:58;;;;;;;8.63;5.30;;;21.40;99.90;;;;;;5027220;28;20597;-63
2023/08/15 06:18:25;;;;;;;10.67;5.70;;;21.50;99.90;;;;;;5049677;28;20922;-63
2023/08/15 06:20:52;;;;;;;8.43;4.57;;;21.50;99.90;;;;;;5028868;28;20457;-63
2023/08/15 06:23:20;;;;;;;7.67;4.63;;;21.70;99.90;;;;;;5034321;28;20785;-63
2023/08/15 06:25:47;;;;;;;8.00;4.57;;;21.90;99.90;;;;;;5041007;28;20481;-64
2023/08/15 06:28:17;;;;;;;5.90;4.20;;;22.10;99.90;;;;;;5028457;28;20621;-63
2023/08/15 06:30:44;;;;;;;5.60;4.47;;;22.10;99.90;;;;;;5032556;28;20475;-63
2023/08/15 06:33:13;;;;;;;4.43;3.97;;;22.20;99.90;;;;;;5022890;28;20487;-64
2023/08/15 06:35:40;;;;;;;10.37;5.63;;;22.30;99.90;;;;;;5004326;28;20535;-63
2023/08/15 06:38:07;;;;;;;4.00;3.60;;;22.40;99.90;;;;;;5018619;28;20516;-64
2023/08/15 06:40:34;;;;;;;3.87;3.53;;;22.40;99.90;;;;;;5050170;28;20871;-63
2023/08/15 06:43:01;;;;;;;6.10;3.90;;;22.40;99.90;;;;;;5036169;28;20559;-63
2023/08/15 06:45:28;;;;;;;7.10;3.60;;;22.70;99.90;;;;;;5028988;28;20452;-63
2023/08/15 06:47:54;;;;;;;7.30;4.50;;;22.80;99.90;;;;;;5005354;28;20886;-66
2023/08/15 06:50:23;;;;;;;6.60;3.63;;;22.80;99.90;;;;;;5036254;28;20866;-65
2023/08/15 06:52:50;;;;;;;4.00;3.30;;;22.90;99.90;;;;;;5035697;28;20909;-66
2023/08/15 06:55:17;;;;;;;4.63;4.00;;;23.00;99.90;;;;;;5026980;28;20669;-66
2023/08/15 06:57:44;;;;;;;13.70;4.30;;;23.10;99.90;;;;;;5031848;28;20540;-66
2023/08/15 07:00:13;;;;;;;5.70;3.13;;;23.10;99.90;;;;;;5025960;28;20476;-66
2023/08/15 07:02:40;;;;;;;3.07;2.87;;;23.10;99.90;;;;;;5038150;28;20499;-66
2023/08/15 07:05:08;;;;;;;3.53;3.23;;;23.10;99.90;;;;;;5027195;28;20544;-66
2023/08/15 07:07:37;;;;;;;12.67;3.77;;;23.10;99.90;;;;;;5016104;28;20482;-66
2023/08/15 07:10:06;;;;;;;5.70;3.37;;;23.10;99.90;;;;;;5013097;28;20494;-66
2023/08/15 07:12:33;;;;;;;4.27;3.80;;;23.10;99.90;;;;;;5033645;28;20483;-66
2023/08/15 07:15:01;;;;;;;9.80;4.50;;;23.20;99.90;;;;;;5021706;28;20535;-65
2023/08/15 07:17:28;;;;;;;11.30;5.40;;;23.60;99.90;;;;;;5017882;28;21125;-66
2023/08/15 07:19:55;;;;;;;5.40;4.33;;;23.60;99.90;;;;;;5028301;28;20545;-66
2023/08/15 07:22:22;;;;;;;4.57;3.20;;;23.60;99.90;;;;;;5014598;28;20557;-66
2023/08/15 07:24:50;;;;;;;5.40;3.80;;;23.60;99.90;;;;;;5029079;28;20651;-66
2023/08/15 07:27:17;;;;;;;3.83;3.43;;;23.70;99.90;;;;;;5024062;28;20833;-66
2023/08/15 07:29:44;;;;;;;4.80;4.03;;;23.70;99.90;;;;;;5018342;28;20459;-66
2023/08/15 07:32:11;;;;;;;4.80;4.00;;;23.80;99.90;;;;;;5032084;28;20487;-66
2023/08/15 07:34:38;;;;;;;4.70;3.77;;;24.00;99.90;;;;;;5009458;28;20765;-66
2023/08/15 07:37:05;;;;;;;3.77;3.37;;;24.10;99.90;;;;;;5022507;28;20475;-66
2023/08/15 07:39:32;;;;;;;5.30;3.80;;;24.30;99.90;;;;;;5032706;28;20853;-65
2023/08/15 07:42:00;;;;;;;5.07;4.33;;;24.60;99.90;;;;;;5038437;28;20513;-66
2023/08/15 07:44:27;;;;;;;4.27;3.80;;;25.10;99.90;;;;;;5019440;28;21048;-66
2023/08/15 07:46:54;;;;;;;3.57;3.27;;;25.10;99.90;;;;;;5029812;28;20796;-66
2023/08/15 07:49:21;;;;;;;5.53;3.60;;;25.20;99.90;;;;;;4996876;28;20483;-66
2023/08/15 07:51:48;;;;;;;4.93;3.57;;;25.50;99.90;;;;;;5034198;28;20916;-66
2023/08/15 07:54:15;;;;;;;4.27;3.87;;;25.50;99.90;;;;;;5011510;28;20547;-66
2023/08/15 07:56:42;;;;;;;6.37;3.90;;;25.50;99.90;;;;;;5041896;28;20450;-66
2023/08/15 07:59:10;;;;;;;5.80;4.10;;;25.70;99.90;;;;;;5037776;28;20565;-66
2023/08/15 08:01:37;;;;;;;3.60;2.97;;;25.70;99.90;;;;;;5042820;28;20995;-66
2023/08/15 08:04:06;;;;;;;5.00;3.90;;;25.70;99.90;;;;;;5033143;28;20702;-66
2023/08/15 08:06:33;;;;;;;4.17;3.57;;;25.70;99.90;;;;;;5020312;28;20553;-66
2023/08/15 08:09:00;;;;;;;3.90;3.30;;;25.80;99.90;;;;;;5020036;28;20944;-66
2023/08/15 08:11:27;;;;;;;4.20;3.80;;;25.90;99.90;;;;;;5035896;28;20543;-66
2023/08/15 08:13:53;;;;;;;6.50;3.40;;;25.80;99.90;;;;;;5008344;28;20455;-65
2023/08/15 08:16:22;;;;;;;9.27;3.90;;;25.80;99.90;;;;;;5024367;28;20531;-65
2023/08/15 08:18:49;;;;;;;7.97;3.63;;;25.80;99.90;;;;;;5046648;28;20450;-65
2023/08/15 08:21:15;;;;;;;4.83;4.17;;;25.80;99.90;;;;;;5041208;28;20663;-65
2023/08/15 08:23:43;;;;;;;12.13;3.80;;;25.60;99.90;;;;;;5044697;28;20451;-65
2023/08/15 08:26:10;;;;;;;5.03;3.87;;;25.60;99.90;;;;;;5029803;28;21011;-66
2023/08/15 08:28:36;;;;;;;4.23;3.83;;;25.50;99.90;;;;;;5026374;28;21949;-68
2023/08/15 08:31:03;;;;;;;3.93;3.30;;;25.50;99.90;;;;;;5030783;28;20541;-67
2023/08/15 08:33:32;;;;;;;14.10;4.43;;;25.30;99.90;;;;;;5028103;28;20554;-68
2023/08/15 08:35:59;;;;;;;4.77;3.80;;;25.40;99.90;;;;;;5040922;28;20470;-67
2023/08/15 08:38:26;;;;;;;5.90;3.63;;;25.40;99.90;;;;;;5046156;28;20463;-68
2023/08/15 08:40:55;;;;;;;6.80;4.17;;;25.20;99.90;;;;;;5031434;28;20977;-67
2023/08/15 08:43:22;;;;;;;4.27;3.87;;;24.90;99.90;;;;;;5035643;28;20525;-67
2023/08/15 08:45:52;;;;;;;6.00;4.03;;;24.90;99.90;;;;;;5036271;28;20450;-67
2023/08/15 08:48:19;;;;;;;4.23;3.13;;;24.60;99.90;;;;;;5024333;28;20531;-67
2023/08/15 08:50:47;;;;;;;5.03;3.23;;;24.50;99.90;;;;;;4981454;28;20660;-70
2023/08/15 08:53:14;;;;;;;11.37;5.57;;;23.90;99.90;;;;;;5041126;28;20934;-65
2023/08/15 08:55:41;;;;;;;14.77;5.30;;;23.90;99.90;;;;;;5037036;28;20458;-63
2023/08/15 08:58:11;;;;;;;11.77;4.57;;;23.50;99.90;;;;;;5028464;28;20867;-63
2023/08/15 09:00:41;;;;;;;16.50;5.30;;;23.10;99.90;;;;;;5028073;28;20476;-64
2023/08/15 09:03:09;;;;;;;6.13;4.50;;;22.60;99.90;;;;;;5035083;28;20912;-63
2023/08/15 09:05:36;;;;;;;9.10;6.20;;;22.60;99.90;;;;;;5034944;28;20537;-64
2023/08/15 09:08:06;;;;;;;8.70;5.27;;;22.40;99.90;;;;;;5047457;28;20464;-64
2023/08/15 09:10:33;;;;;;;14.93;5.50;;;22.20;99.90;;;;;;5036191;28;20901;-64
2023/08/15 09:13:03;;;;;;;29.30;6.77;;;22.00;99.90;;;;;;5019314;28;20987;-63
2023/08/15 09:15:30;;;;;;;12.90;5.90;;;21.90;99.90;;;;;;5010855;28;20475;-64
2023/08/15 09:18:04;;;;;;;11.00;6.47;;;21.70;99.90;;;;;;5032301;28;20478;-64
2023/08/15 09:20:31;;;;;;;16.13;5.47;;;21.60;99.90;;;;;;5005352;28;20447;-63
2023/08/15 09:22:59;;;;;;;14.50;5.33;;;21.50;99.90;;;;;;5034729;28;20461;-64
2023/08/15 09:25:29;;;;;;;7.83;5.87;;;21.50;99.90;;;;;;5046322;28;20924;-64
2023/08/15 09:27:56;;;;;;;6.93;4.73;;;21.60;99.90;;;;;;5026363;28;21136;-64
2023/08/15 09:30:23;;;;;;;6.70;5.70;;;21.60;99.90;;;;;;5044091;28;20527;-64
2023/08/15 09:32:50;;;;;;;14.30;6.13;;;21.40;99.90;;;;;;5044700;28;20577;-65
2023/08/15 09:35:18;;;;;;;9.77;5.80;;;21.40;99.90;;;;;;5053974;28;20470;-62
2023/08/15 09:37:47;;;;;;;11.20;6.10;;;21.20;99.90;;;;;;5043354;28;20456;-62
2023/08/15 09:40:16;;;;;;;8.13;5.90;;;21.10;99.90;;;;;;5049938;28;21120;-63
2023/08/15 09:42:45;;;;;;;15.73;5.60;;;21.20;99.90;;;;;;5043161;28;20463;-63
2023/08/15 09:45:13;;;;;;;8.13;4.37;;;21.20;99.90;;;;;;5043380;28;20562;-65
2023/08/15 09:47:42;;;;;;;5.60;5.00;;;21.20;99.90;;;;;;5039873;28;20478;-64
2023/08/15 09:50:10;;;;;;;6.40;5.23;;;21.10;99.90;;;;;;5048984;28;20851;-62
2023/08/15 09:52:39;;;;;;;15.60;6.00;;;21.10;99.90;;;;;;5041304;28;20450;-62
2023/08/15 09:55:09;;;;;;;9.53;5.33;;;21.10;99.90;;;;;;5052373;28;20465;-62
2023/08/15 09:57:36;;;;;;;5.33;4.80;;;21.10;99.90;;;;;;5043335;28;20476;-63
2023/08/15 10:00:08;;;;;;;5.07;4.40;;;21.00;99.90;;;;;;5031942;28;20818;-64
2023/08/15 10:02:43;;;;;;;7.90;4.97;;;21.20;99.90;;;;;;5042385;28;20466;-64
2023/08/15 10:05:12;;;;;;;7.73;4.23;;;21.10;99.90;;;;;;5021886;28;20779;-63
2023/08/15 10:07:41;;;;;;;5.10;3.50;;;21.20;99.90;;;;;;5015636;28;20478;-63
2023/08/15 10:10:10;;;;;;;3.30;3.00;;;21.30;99.90;;;;;;5027629;28;20484;-64
2023/08/15 10:12:39;;;;;;;7.83;3.83;;;21.40;99.90;;;;;;5018938;28;20566;-64
2023/08/15 10:15:09;;;;;;;4.40;3.60;;;;;;;;;;5010775;28;20448;-63
2023/08/15 10:17:37;;;;;;;4.07;3.27;;;21.30;99.90;;;;;;5046528;28;20489;-63
2023/08/15 10:20:10;;;;;;;5.70;2.83;;;21.30;99.90;;;;;;5043538;28;20948;-63
2023/08/15 10:22:38;;;;;;;2.67;2.33;;;21.40;99.90;;;;;;5031532;28;20473;-63
2023/08/15 10:25:20;;;;;;;4.30;3.10;;;21.40;99.90;;;;;;5027365;28;20483;-63
2023/08/15 10:27:48;;;;;;;3.33;2.80;;;21.40;99.90;;;;;;5039114;28;21194;-64
2023/08/15 10:30:29;;;;;;;4.00;2.90;;;21.50;99.90;;;;;;5031046;28;20486;-63
2023/08/15 10:32:59;;;;;;;3.13;2.77;;;21.50;99.90;;;;;;5024668;28;20486;-62
2023/08/15 10:35:28;;;;;;;4.53;2.83;;;21.50;99.90;;;;;;5024224;28;20563;-63
2023/08/15 10:37:56;;;;;;;4.60;2.80;;;21.50;99.90;;;;;;5021143;28;20866;-63
2023/08/15 10:40:37;;;;;;;4.23;2.47;;;21.60;99.90;;;;;;5025136;28;20610;-63
2023/08/15 10:43:10;;;;;;;2.93;2.40;;;21.70;99.90;;;;;;5020067;28;20482;-63
2023/08/15 10:45:41;;;;;;;3.23;2.83;;;22.00;99.90;;;;;;5035805;28;20482;-62
2023/08/15 10:48:09;;;;;;;5.40;2.67;;;22.20;99.90;;;;;;5028922;28;20523;-62
2023/08/15 10:50:37;;;;;;;18.90;4.03;;;22.20;99.90;;;;;;5028280;28;20877;-63
2023/08/15 10:53:05;;;;;;;4.83;2.97;;;22.50;99.90;;;;;;5042389;28;20482;-63
2023/08/15 10:55:34;;;;;;;5.43;2.97;;;22.50;99.90;;;;;;5025929;28;20478;-63
2023/08/15 10:58:04;;;;;;;7.97;3.40;;;22.10;99.90;;;;;;5023223;28;20450;-64
2023/08/15 11:00:32;;;;;;;3.83;3.00;;;22.10;99.90;;;;;;5024036;28;20953;-65
2023/08/15 11:03:01;;;;;;;5.70;2.83;;;22.00;99.90;;;;;;5029852;28;21056;-65
2023/08/15 11:05:29;;;;;;;3.90;3.43;;;22.00;99.90;;;;;;5020340;28;20858;-65
2023/08/15 11:08:10;;;;;;;15.63;3.60;;;22.00;99.90;;;;;;5027998;28;20742;-66
2023/08/15 11:10:37;;;;;;;3.90;2.77;;;22.00;99.90;;;;;;5015200;28;20449;-66
2023/08/15 11:13:09;;;;;;;2.90;2.70;;;22.20;99.90;;;;;;5023597;28;21783;-66
2023/08/15 11:15:36;;;;;;;4.37;3.80;;;22.30;99.90;;;;;;5011557;28;20469;-67
2023/08/15 11:18:05;;;;;;;5.97;3.10;;;22.50;99.90;;;;;;5032646;28;20464;-66
2023/08/15 11:20:33;;;;;;;5.40;3.37;;;22.50;99.90;;;;;;5026121;28;20503;-67
2023/08/15 11:23:00;;;;;;;4.30;3.03;;;22.70;99.90;;;;;;5046872;28;20557;-66
2023/08/15 11:25:27;;;;;;;3.50;2.73;;;22.60;99.90;;;;;;5040157;28;20530;-66
2023/08/15 11:27:54;;;;;;;5.60;2.93;;;22.60;99.90;;;;;;5041331;28;20548;-66
2023/08/15 11:30:21;;;;;;;4.90;3.80;;;22.60;99.90;;;;;;5038690;28;20895;-66
2023/08/15 11:32:50;;;;;;;4.77;3.13;;;22.50;99.90;;;;;;5042554;28;20498;-66
2023/08/15 11:35:19;;;;;;;6.73;3.00;;;22.50;99.90;;;;;;5029647;28;20458;-66
2023/08/15 11:37:46;;;;;;;6.30;3.50;;;22.60;99.90;;;;;;5039957;28;20487;-66
2023/08/15 11:40:13;;;;;;;3.70;3.40;;;22.60;99.90;;;;;;5037193;28;20493;-66
2023/08/15 11:42:40;;;;;;;3.60;3.37;;;22.70;99.90;;;;;;5031789;28;21393;-67
2023/08/15 11:45:13;;;;;;;2.97;2.70;;;22.90;99.90;;;;;;5017939;28;20875;-67
2023/08/15 11:48:00;;;;;;;7.20;3.17;;;22.90;99.90;;;;;;5026965;28;21129;-67
2023/08/15 11:50:29;;;;;;;3.13;2.83;;;22.90;99.90;;;;;;5022077;28;20922;-66
2023/08/15 11:52:56;;;;;;;4.07;3.67;;;22.80;99.90;;;;;;5021339;28;20483;-66
2023/08/15 11:55:24;;;;;;;5.43;4.43;;;22.70;99.90;;;;;;5028870;28;20572;-67
2023/08/15 11:57:52;;;;;;;3.23;3.03;;;22.50;99.90;;;;;;5035813;28;20477;-66
2023/08/15 12:00:20;;;;;;;6.53;4.60;;;22.50;99.90;;;;;;5026905;28;20477;-67
2023/08/15 12:02:49;;;;;;;5.00;4.20;;;22.40;99.90;;;;;;5037237;28;20558;-66
2023/08/15 12:05:18;;;;;;;8.10;3.77;;;22.40;99.90;;;;;;5018888;28;20565;-66
2023/08/15 12:07:47;;;;;;;4.17;3.77;;;22.40;99.90;;;;;;5032491;28;20477;-64
2023/08/15 12:10:15;;;;;;;4.77;4.37;;;22.40;99.90;;;;;;5044825;28;20585;-64
2023/08/15 12:12:44;;;;;;;4.63;4.13;;;22.50;99.90;;;;;;5017038;28;20813;-64
2023/08/15 12:15:13;;;;;;;9.53;4.77;;;22.60;99.90;;;;;;5044795;28;26174;-65
2023/08/15 12:17:40;;;;;;;5.13;3.53;;;22.60;99.90;;;;;;5014729;28;21281;-63
2023/08/15 12:20:09;;;;;;;4.03;3.63;;;22.60;99.90;;;;;;5024975;28;20453;-64
2023/08/15 12:22:37;;;;;;;6.00;3.73;;;22.60;99.90;;;;;;5021607;28;20534;-64
2023/08/15 12:25:07;;;;;;;3.63;3.20;;;22.50;99.90;;;;;;5020932;28;20493;-64
2023/08/15 12:27:35;;;;;;;4.80;4.40;;;22.60;99.90;;;;;;5022411;28;20457;-65
2023/08/15 12:30:02;;;;;;;5.13;4.43;;;22.50;99.90;;;;;;5045545;28;20473;-65
2023/08/15 12:32:30;;;;;;;4.50;4.10;;;22.50;99.90;;;;;;5033313;28;20462;-65
2023/08/15 12:34:57;;;;;;;4.10;3.70;;;22.50;99.90;;;;;;5045124;28;20456;-64
2023/08/15 12:37:24;;;;;;;9.20;5.00;;;22.60;99.90;;;;;;5040197;28;20457;-67
2023/08/15 12:39:51;;;;;;;5.07;4.57;;;22.70;99.90;;;;;;5032771;28;20465;-67
2023/08/15 12:42:21;;;;;;;8.50;4.53;;;22.70;99.90;;;;;;5031297;28;20468;-67
2023/08/15 12:44:48;;;;;;;5.20;4.40;;;22.70;99.90;;;;;;5016592;28;20562;-67
2023/08/15 12:47:15;;;;;;;4.60;4.20;;;22.80;99.90;;;;;;5021983;28;20569;-67
2023/08/15 12:49:42;;;;;;;7.60;5.13;;;22.80;99.90;;;;;;5042853;28;20582;-67
2023/08/15 12:52:09;;;;;;;4.50;4.10;;;22.80;99.90;;;;;;5037010;28;21219;-66